sensor_id;sensor_type;location;lat;lon;timestamp;temperature;humidity
43541;DHT22;29549;40.386;-3.710;2022-12-29T03:19:47;10.70;76.30
43541;DHT22;29549;40.386;-3.710;2022-12-29T03:29:55;10.60;77.10
43541;DHT22;29549;40.386;-3.710;2022-12-29T03:39:59;10.70;76.80
43541;DHT22;29549;40.386;-3.710;2022-12-29T03:50:02;10.80;76.50
43541;DHT22;29549;40.386;-3.710;2022-12-29T04:00:06;10.70;76.40
43541;DHT22;29549;40.386;-3.710;2022-12-29T04:10:08;10.80;76.20
43541;DHT22;29549;40.386;-3.710;2022-12-29T04:20:12;10.60;76.60
43541;DHT22;29549;40.386;-3.710;2022-12-29T04:30:33;10.70;76.50
43541;DHT22;29549;40.386;-3.710;2022-12-29T04:40:35;10.70;76.30
43541;DHT22;29549;40.386;-3.710;2022-12-29T04:50:53;10.70;76.10
43541;DHT22;29549;40.386;-3.710;2022-12-29T05:00:54;10.70;76.00
43541;DHT22;29549;40.386;-3.710;2022-12-29T05:11:16;10.70;75.70
43541;DHT22;29549;40.386;-3.710;2022-12-29T05:21:37;10.80;75.30
43541;DHT22;29549;40.386;-3.710;2022-12-29T05:31:54;10.80;75.00
43541;DHT22;29549;40.386;-3.710;2022-12-29T05:41:57;10.70;75.40
43541;DHT22;29549;40.386;-3.710;2022-12-29T05:51:58;10.70;74.90
43541;DHT22;29549;40.386;-3.710;2022-12-29T06:02:00;10.70;74.80
43541;DHT22;29549;40.386;-3.710;2022-12-29T06:12:02;10.80;74.60
43541;DHT22;29549;40.386;-3.710;2022-12-29T06:22:04;10.80;74.30
43541;DHT22;29549;40.386;-3.710;2022-12-29T06:32:07;10.90;74.40
43541;DHT22;29549;40.386;-3.710;2022-12-29T06:42:09;10.80;74.20
43541;DHT22;29549;40.386;-3.710;2022-12-29T06:52:11;10.90;74.10
43541;DHT22;29549;40.386;-3.710;2022-12-29T07:02:13;11.00;74.00
43541;DHT22;29549;40.386;-3.710;2022-12-29T07:12:20;10.80;74.00
43541;DHT22;29549;40.386;-3.710;2022-12-29T07:22:22;10.80;73.70
43541;DHT22;29549;40.386;-3.710;2022-12-29T07:32:24;10.70;73.60
43541;DHT22;29549;40.386;-3.710;2022-12-29T07:42:26;10.70;73.70
43541;DHT22;29549;40.386;-3.710;2022-12-29T07:52:27;10.50;73.80
43541;DHT22;29549;40.386;-3.710;2022-12-29T08:02:29;10.60;73.70
43541;DHT22;29549;40.386;-3.710;2022-12-29T08:12:31;10.60;74.00
43541;DHT22;29549;40.386;-3.710;2022-12-29T08:22:32;10.60;73.90
43541;DHT22;29549;40.386;-3.710;2022-12-29T08:32:34;10.60;73.80
43541;DHT22;29549;40.386;-3.710;2022-12-29T08:42:36;10.70;74.30
43541;DHT22;29549;40.386;-3.710;2022-12-29T08:52:38;10.90;74.60
43541;DHT22;29549;40.386;-3.710;2022-12-29T09:02:40;11.00;75.20
43541;DHT22;29549;40.386;-3.710;2022-12-29T09:12:41;11.10;75.50
43541;DHT22;29549;40.386;-3.710;2022-12-29T09:22:43;11.20;76.00
43541;DHT22;29549;40.386;-3.710;2022-12-29T09:32:45;11.30;77.40
43541;DHT22;29549;40.386;-3.710;2022-12-29T09:53:31;11.70;79.00
43541;DHT22;29549;40.386;-3.710;2022-12-29T10:03:52;11.70;79.20
43541;DHT22;29549;40.386;-3.710;2022-12-29T10:14:32;11.80;79.40
43541;DHT22;29549;40.386;-3.710;2022-12-29T10:24:38;12.00;79.20
43541;DHT22;29549;40.386;-3.710;2022-12-29T10:34:53;12.00;79.40
43541;DHT22;29549;40.386;-3.710;2022-12-29T10:44:56;12.10;79.00
43541;DHT22;29549;40.386;-3.710;2022-12-29T10:55:15;12.30;77.60
43541;DHT22;29549;40.386;-3.710;2022-12-29T11:15:49;12.70;75.40
43541;DHT22;29549;40.386;-3.710;2022-12-29T11:36:17;12.70;74.30
43541;DHT22;29549;40.386;-3.710;2022-12-29T11:46:31;12.70;75.20
43541;DHT22;29549;40.386;-3.710;2022-12-29T11:56:39;13.00;74.30
43541;DHT22;29549;40.386;-3.710;2022-12-29T12:06:49;13.00;74.00
43541;DHT22;29549;40.386;-3.710;2022-12-29T12:17:02;13.00;74.70
43541;DHT22;29549;40.386;-3.710;2022-12-29T13:38:42;13.40;75.20
43541;DHT22;29549;40.386;-3.710;2022-12-29T13:49:18;13.40;75.20
43541;DHT22;29549;40.386;-3.710;2022-12-29T14:09:49;13.60;74.80
43541;DHT22;29549;40.386;-3.710;2022-12-29T14:19:53;13.50;75.60
43541;DHT22;29549;40.386;-3.710;2022-12-29T14:29:55;13.50;76.00
43541;DHT22;29549;40.386;-3.710;2022-12-29T14:50:22;13.70;76.10
43541;DHT22;29549;40.386;-3.710;2022-12-29T15:00:31;13.60;76.40
43541;DHT22;29549;40.386;-3.710;2022-12-29T15:10:39;13.60;76.50
43541;DHT22;29549;40.386;-3.710;2022-12-29T15:20:43;13.60;76.70
43541;DHT22;29549;40.386;-3.710;2022-12-29T15:31:03;13.70;76.50
43541;DHT22;29549;40.386;-3.710;2022-12-29T15:51:35;13.60;77.70
43541;DHT22;29549;40.386;-3.710;2022-12-29T16:01:37;13.70;77.60
43541;DHT22;29549;40.386;-3.710;2022-12-29T16:11:45;13.60;77.90
43541;DHT22;29549;40.386;-3.710;2022-12-29T16:21:48;13.60;77.80
43541;DHT22;29549;40.386;-3.710;2022-12-29T16:31:55;13.60;78.00
43541;DHT22;29549;40.386;-3.710;2022-12-29T16:42:35;13.60;77.70
43541;DHT22;29549;40.386;-3.710;2022-12-29T16:52:40;13.60;77.90
43541;DHT22;29549;40.386;-3.710;2022-12-29T17:02:41;13.40;78.80
43541;DHT22;29549;40.386;-3.710;2022-12-29T17:12:47;13.40;79.00
43541;DHT22;29549;40.386;-3.710;2022-12-29T17:22:51;13.30;80.20
43541;DHT22;29549;40.386;-3.710;2022-12-29T17:33:04;13.30;81.60
43541;DHT22;29549;40.386;-3.710;2022-12-29T17:43:10;13.20;82.20
43541;DHT22;29549;40.386;-3.710;2022-12-29T17:53:15;13.20;82.10
43541;DHT22;29549;40.386;-3.710;2022-12-29T18:13:29;13.30;81.70
43541;DHT22;29549;40.386;-3.710;2022-12-29T18:23:32;13.20;81.60
43541;DHT22;29549;40.386;-3.710;2022-12-29T18:33:37;13.20;81.00
43541;DHT22;29549;40.386;-3.710;2022-12-29T18:43:39;13.20;80.60
43541;DHT22;29549;40.386;-3.710;2022-12-29T18:53:40;13.20;80.60
43541;DHT22;29549;40.386;-3.710;2022-12-29T19:03:42;13.20;80.90
43541;DHT22;29549;40.386;-3.710;2022-12-29T19:13:43;13.20;79.60
43541;DHT22;29549;40.386;-3.710;2022-12-29T19:23:45;13.20;78.40
43541;DHT22;29549;40.386;-3.710;2022-12-29T19:33:47;13.20;77.10
43541;DHT22;29549;40.386;-3.710;2022-12-29T19:43:48;13.20;76.80
43541;DHT22;29549;40.386;-3.710;2022-12-29T19:53:50;13.20;76.90
43541;DHT22;29549;40.386;-3.710;2022-12-29T20:03:53;13.20;76.60
43541;DHT22;29549;40.386;-3.710;2022-12-29T20:13:55;13.20;77.10
43541;DHT22;29549;40.386;-3.710;2022-12-29T20:23:56;13.00;79.40
43541;DHT22;29549;40.386;-3.710;2022-12-29T20:33:58;12.90;79.90
43541;DHT22;29549;40.386;-3.710;2022-12-29T20:44:00;12.80;79.90
43541;DHT22;29549;40.386;-3.710;2022-12-29T20:54:02;13.00;79.10
43541;DHT22;29549;40.386;-3.710;2022-12-29T21:04:04;12.90;79.10
43541;DHT22;29549;40.386;-3.710;2022-12-29T21:14:05;12.80;79.40
43541;DHT22;29549;40.386;-3.710;2022-12-29T21:24:07;12.90;78.80
43541;DHT22;29549;40.386;-3.710;2022-12-29T21:34:09;12.80;78.90
43541;DHT22;29549;40.386;-3.710;2022-12-29T21:44:11;12.80;78.90
43541;DHT22;29549;40.386;-3.710;2022-12-29T21:54:32;12.90;78.50
43541;DHT22;29549;40.386;-3.710;2022-12-29T22:04:52;12.90;78.20
43541;DHT22;29549;40.386;-3.710;2022-12-29T22:15:13;12.90;78.30
43541;DHT22;29549;40.386;-3.710;2022-12-29T22:25:15;12.90;78.60
43541;DHT22;29549;40.386;-3.710;2022-12-29T22:35:17;12.80;78.50
43541;DHT22;29549;40.386;-3.710;2022-12-29T22:45:20;12.80;78.30
43541;DHT22;29549;40.386;-3.710;2022-12-29T22:55:23;12.80;78.30
43541;DHT22;29549;40.386;-3.710;2022-12-29T23:05:25;12.80;78.20
43541;DHT22;29549;40.386;-3.710;2022-12-29T23:15:27;12.80;77.50
43541;DHT22;29549;40.386;-3.710;2022-12-29T23:25:30;12.80;77.30
43541;DHT22;29549;40.386;-3.710;2022-12-29T23:35:32;12.80;76.60
43541;DHT22;29549;40.386;-3.710;2022-12-29T23:45:35;12.80;76.10
43541;DHT22;29549;40.386;-3.710;2022-12-29T23:55:40;12.70;75.90
